Lakeland, Florida
Current Conditions -  °F | °C
As of 3:51 PM on Thursday 18 Dec 2014 (Local Time) from KLAL Reporting Station
Scattered Clouds Scattered Clouds  
Wind Chill: 20°   Ceiling: Unl
Heat Index: 20°   Visibility: 12mi
Dew Point:   Wind: 6mph
Humidity: 49%   Direction: 300°WNW
Pressure: 30.1"   Gusts: NA
Location:  28.04°N, 81.95°W
Report Text: KLAL 182051Z 30005KT 12SM SCT250 20/09 A3010
Loading
Personal Weather Stations






























Interactive Weather Map New forecast layout! Learn more

10-Day Weather Forecast

Advertisements
Track Severe Weather on mobile